sensor_id;sensor_type;location;lat;lon;timestamp;temperature;humidity
17813;DHT22;9030;50.792;8.320;2023-08-21T00:00:15;18.40;99.90
17813;DHT22;9030;50.792;8.320;2023-08-21T00:02:42;18.40;99.90
17813;DHT22;9030;50.792;8.320;2023-08-21T00:05:09;18.40;99.90
17813;DHT22;9030;50.792;8.320;2023-08-21T00:07:36;18.40;99.90
17813;DHT22;9030;50.792;8.320;2023-08-21T00:10:04;18.40;99.90
17813;DHT22;9030;50.792;8.320;2023-08-21T00:12:31;18.30;99.90
17813;DHT22;9030;50.792;8.320;2023-08-21T00:14:58;18.30;99.90
17813;DHT22;9030;50.792;8.320;2023-08-21T00:17:24;18.30;99.90
17813;DHT22;9030;50.792;8.320;2023-08-21T00:19:51;18.20;99.90
17813;DHT22;9030;50.792;8.320;2023-08-21T00:22:18;18.20;99.90
17813;DHT22;9030;50.792;8.320;2023-08-21T00:24:44;18.30;99.90
17813;DHT22;9030;50.792;8.320;2023-08-21T00:27:12;18.30;99.90
17813;DHT22;9030;50.792;8.320;2023-08-21T00:29:39;18.20;99.90
17813;DHT22;9030;50.792;8.320;2023-08-21T00:32:06;18.20;99.90
17813;DHT22;9030;50.792;8.320;2023-08-21T00:34:32;18.10;99.90
17813;DHT22;9030;50.792;8.320;2023-08-21T00:36:59;18.10;99.90
17813;DHT22;9030;50.792;8.320;2023-08-21T00:39:26;18.10;99.90
17813;DHT22;9030;50.792;8.320;2023-08-21T00:41:53;18.10;99.90
17813;DHT22;9030;50.792;8.320;2023-08-21T00:44:21;18.20;99.90
17813;DHT22;9030;50.792;8.320;2023-08-21T00:46:48;18.20;99.90
17813;DHT22;9030;50.792;8.320;2023-08-21T00:49:14;18.30;99.90
17813;DHT22;9030;50.792;8.320;2023-08-21T00:51:41;18.30;99.90
17813;DHT22;9030;50.792;8.320;2023-08-21T00:54:08;18.40;99.90
17813;DHT22;9030;50.792;8.320;2023-08-21T00:56:35;18.40;99.90
17813;DHT22;9030;50.792;8.320;2023-08-21T00:59:02;18.40;99.90
17813;DHT22;9030;50.792;8.320;2023-08-21T01:01:30;18.40;99.90
17813;DHT22;9030;50.792;8.320;2023-08-21T01:03:56;18.30;99.90
17813;DHT22;9030;50.792;8.320;2023-08-21T01:06:23;18.20;99.90
17813;DHT22;9030;50.792;8.320;2023-08-21T01:08:55;18.20;99.90
17813;DHT22;9030;50.792;8.320;2023-08-21T01:11:27;18.10;99.90
17813;DHT22;9030;50.792;8.320;2023-08-21T01:14:03;18.20;99.90
17813;DHT22;9030;50.792;8.320;2023-08-21T01:16:36;18.20;99.90
17813;DHT22;9030;50.792;8.320;2023-08-21T01:19:03;18.30;99.90
17813;DHT22;9030;50.792;8.320;2023-08-21T01:21:32;18.30;99.90
17813;DHT22;9030;50.792;8.320;2023-08-21T01:24:00;18.30;99.90
17813;DHT22;9030;50.792;8.320;2023-08-21T01:26:26;18.30;99.90
17813;DHT22;9030;50.792;8.320;2023-08-21T01:28:53;18.40;99.90
17813;DHT22;9030;50.792;8.320;2023-08-21T01:31:24;18.30;99.90
17813;DHT22;9030;50.792;8.320;2023-08-21T01:33:55;18.30;99.90
17813;DHT22;9030;50.792;8.320;2023-08-21T01:36:23;18.30;99.90
17813;DHT22;9030;50.792;8.320;2023-08-21T01:38:51;18.20;99.90
17813;DHT22;9030;50.792;8.320;2023-08-21T01:41:19;18.20;99.90
17813;DHT22;9030;50.792;8.320;2023-08-21T01:43:45;18.10;99.90
17813;DHT22;9030;50.792;8.320;2023-08-21T01:46:12;18.10;99.90
17813;DHT22;9030;50.792;8.320;2023-08-21T01:48:39;18.20;99.90
17813;DHT22;9030;50.792;8.320;2023-08-21T01:51:05;18.20;99.90
17813;DHT22;9030;50.792;8.320;2023-08-21T01:53:32;18.20;99.90
17813;DHT22;9030;50.792;8.320;2023-08-21T01:55:58;18.20;99.90
17813;DHT22;9030;50.792;8.320;2023-08-21T01:58:26;18.20;99.90
17813;DHT22;9030;50.792;8.320;2023-08-21T02:00:53;18.20;99.90
17813;DHT22;9030;50.792;8.320;2023-08-21T02:03:20;18.20;99.90
17813;DHT22;9030;50.792;8.320;2023-08-21T02:05:46;18.20;99.90
17813;DHT22;9030;50.792;8.320;2023-08-21T02:08:14;18.10;99.90
17813;DHT22;9030;50.792;8.320;2023-08-21T02:10:49;18.10;99.90
17813;DHT22;9030;50.792;8.320;2023-08-21T02:13:15;18.00;99.90
17813;DHT22;9030;50.792;8.320;2023-08-21T02:15:43;17.90;99.90
17813;DHT22;9030;50.792;8.320;2023-08-21T02:18:10;17.90;99.90
17813;DHT22;9030;50.792;8.320;2023-08-21T02:20:36;17.90;99.90
17813;DHT22;9030;50.792;8.320;2023-08-21T02:23:03;17.90;99.90
17813;DHT22;9030;50.792;8.320;2023-08-21T02:25:31;17.80;99.90
17813;DHT22;9030;50.792;8.320;2023-08-21T02:27:58;17.80;99.90
17813;DHT22;9030;50.792;8.320;2023-08-21T02:30:24;17.80;99.90
17813;DHT22;9030;50.792;8.320;2023-08-21T02:32:52;17.70;99.90
17813;DHT22;9030;50.792;8.320;2023-08-21T02:35:19;17.70;99.90
17813;DHT22;9030;50.792;8.320;2023-08-21T02:37:46;17.60;99.90
17813;DHT22;9030;50.792;8.320;2023-08-21T02:40:13;17.50;99.90
17813;DHT22;9030;50.792;8.320;2023-08-21T02:42:40;17.40;99.90
17813;DHT22;9030;50.792;8.320;2023-08-21T02:45:07;17.40;99.90
17813;DHT22;9030;50.792;8.320;2023-08-21T02:47:35;17.30;99.90
17813;DHT22;9030;50.792;8.320;2023-08-21T02:50:04;17.30;99.90
17813;DHT22;9030;50.792;8.320;2023-08-21T02:52:31;17.30;99.90
17813;DHT22;9030;50.792;8.320;2023-08-21T02:54:58;17.30;99.90
17813;DHT22;9030;50.792;8.320;2023-08-21T02:57:25;17.30;99.90
17813;DHT22;9030;50.792;8.320;2023-08-21T02:59:53;17.30;99.90
17813;DHT22;9030;50.792;8.320;2023-08-21T03:02:20;17.20;99.90
17813;DHT22;9030;50.792;8.320;2023-08-21T03:04:46;17.10;99.90
17813;DHT22;9030;50.792;8.320;2023-08-21T03:07:15;17.00;99.90
17813;DHT22;9030;50.792;8.320;2023-08-21T03:09:44;17.00;99.90
17813;DHT22;9030;50.792;8.320;2023-08-21T03:12:11;17.00;99.90
17813;DHT22;9030;50.792;8.320;2023-08-21T03:14:38;17.00;99.90
17813;DHT22;9030;50.792;8.320;2023-08-21T03:17:04;16.90;99.90
17813;DHT22;9030;50.792;8.320;2023-08-21T03:19:31;16.90;99.90
17813;DHT22;9030;50.792;8.320;2023-08-21T03:21:57;16.90;99.90
17813;DHT22;9030;50.792;8.320;2023-08-21T03:24:26;16.90;99.90
17813;DHT22;9030;50.792;8.320;2023-08-21T03:26:52;16.90;99.90
17813;DHT22;9030;50.792;8.320;2023-08-21T03:29:19;16.80;99.90
17813;DHT22;9030;50.792;8.320;2023-08-21T03:31:47;16.80;99.90
17813;DHT22;9030;50.792;8.320;2023-08-21T03:34:14;16.70;99.90
17813;DHT22;9030;50.792;8.320;2023-08-21T03:36:40;16.70;99.90
17813;DHT22;9030;50.792;8.320;2023-08-21T03:39:07;16.70;99.90
17813;DHT22;9030;50.792;8.320;2023-08-21T03:41:35;16.70;99.90
17813;DHT22;9030;50.792;8.320;2023-08-21T03:44:01;16.70;99.90
17813;DHT22;9030;50.792;8.320;2023-08-21T03:46:28;16.60;99.90
17813;DHT22;9030;50.792;8.320;2023-08-21T03:48:55;16.60;99.90
17813;DHT22;9030;50.792;8.320;2023-08-21T03:51:22;16.60;99.90
17813;DHT22;9030;50.792;8.320;2023-08-21T03:53:49;16.60;99.90
17813;DHT22;9030;50.792;8.320;2023-08-21T03:56:16;16.50;99.90
17813;DHT22;9030;50.792;8.320;2023-08-21T03:58:44;16.50;99.90
17813;DHT22;9030;50.792;8.320;2023-08-21T04:01:10;16.50;99.90
17813;DHT22;9030;50.792;8.320;2023-08-21T04:03:37;16.50;99.90
17813;DHT22;9030;50.792;8.320;2023-08-21T04:06:03;16.50;99.90
17813;DHT22;9030;50.792;8.320;2023-08-21T04:08:30;16.50;99.90
17813;DHT22;9030;50.792;8.320;2023-08-21T04:10:57;16.50;99.90
17813;DHT22;9030;50.792;8.320;2023-08-21T04:13:25;16.40;99.90
17813;DHT22;9030;50.792;8.320;2023-08-21T04:15:54;16.30;99.90
17813;DHT22;9030;50.792;8.320;2023-08-21T04:18:22;16.30;99.90
17813;DHT22;9030;50.792;8.320;2023-08-21T04:20:48;16.30;99.90
17813;DHT22;9030;50.792;8.320;2023-08-21T04:23:15;16.40;99.90
17813;DHT22;9030;50.792;8.320;2023-08-21T04:25:42;16.30;99.90
17813;DHT22;9030;50.792;8.320;2023-08-21T04:28:09;16.40;99.90
17813;DHT22;9030;50.792;8.320;2023-08-21T04:30:36;16.30;99.90
17813;DHT22;9030;50.792;8.320;2023-08-21T04:33:04;16.30;99.90
17813;DHT22;9030;50.792;8.320;2023-08-21T04:35:36;16.30;99.90
17813;DHT22;9030;50.792;8.320;2023-08-21T04:38:03;16.30;99.90
17813;DHT22;9030;50.792;8.320;2023-08-21T04:40:29;16.30;99.90
17813;DHT22;9030;50.792;8.320;2023-08-21T04:42:56;16.20;99.90
17813;DHT22;9030;50.792;8.320;2023-08-21T04:45:23;16.20;99.90
17813;DHT22;9030;50.792;8.320;2023-08-21T04:47:49;16.20;99.90
17813;DHT22;9030;50.792;8.320;2023-08-21T04:50:17;16.20;99.90
17813;DHT22;9030;50.792;8.320;2023-08-21T04:52:44;16.20;99.90
17813;DHT22;9030;50.792;8.320;2023-08-21T04:55:11;16.20;99.90
17813;DHT22;9030;50.792;8.320;2023-08-21T04:57:37;16.30;99.90
17813;DHT22;9030;50.792;8.320;2023-08-21T05:00:05;16.40;99.90
17813;DHT22;9030;50.792;8.320;2023-08-21T05:02:33;16.40;99.90
17813;DHT22;9030;50.792;8.320;2023-08-21T05:04:59;16.50;99.90
17813;DHT22;9030;50.792;8.320;2023-08-21T05:07:27;16.60;99.90
17813;DHT22;9030;50.792;8.320;2023-08-21T05:09:54;16.70;99.90
17813;DHT22;9030;50.792;8.320;2023-08-21T05:12:21;16.70;99.90
17813;DHT22;9030;50.792;8.320;2023-08-21T05:14:47;16.90;99.90
17813;DHT22;9030;50.792;8.320;2023-08-21T05:17:14;17.00;99.90
17813;DHT22;9030;50.792;8.320;2023-08-21T05:19:40;17.10;99.90
17813;DHT22;9030;50.792;8.320;2023-08-21T05:22:07;17.20;99.90
17813;DHT22;9030;50.792;8.320;2023-08-21T05:24:35;17.10;99.90
17813;DHT22;9030;50.792;8.320;2023-08-21T05:27:02;17.30;99.90
17813;DHT22;9030;50.792;8.320;2023-08-21T05:29:29;17.40;99.90
17813;DHT22;9030;50.792;8.320;2023-08-21T05:31:56;17.60;99.90
17813;DHT22;9030;50.792;8.320;2023-08-21T05:34:23;17.90;99.90
17813;DHT22;9030;50.792;8.320;2023-08-21T05:36:50;17.90;99.90
17813;DHT22;9030;50.792;8.320;2023-08-21T05:39:19;17.80;99.90
17813;DHT22;9030;50.792;8.320;2023-08-21T05:41:48;17.90;99.90
17813;DHT22;9030;50.792;8.320;2023-08-21T05:44:14;17.90;99.90
17813;DHT22;9030;50.792;8.320;2023-08-21T05:46:41;17.90;99.90
17813;DHT22;9030;50.792;8.320;2023-08-21T05:49:07;18.10;99.90
17813;DHT22;9030;50.792;8.320;2023-08-21T05:51:34;18.30;99.90
17813;DHT22;9030;50.792;8.320;2023-08-21T05:54:01;18.30;99.90
17813;DHT22;9030;50.792;8.320;2023-08-21T05:56:27;18.50;99.90
17813;DHT22;9030;50.792;8.320;2023-08-21T05:58:55;18.60;99.90
17813;DHT22;9030;50.792;8.320;2023-08-21T06:01:22;18.70;99.90
17813;DHT22;9030;50.792;8.320;2023-08-21T06:03:49;18.80;99.90
17813;DHT22;9030;50.792;8.320;2023-08-21T06:06:15;18.80;99.90
17813;DHT22;9030;50.792;8.320;2023-08-21T06:08:42;19.10;99.90
17813;DHT22;9030;50.792;8.320;2023-08-21T06:11:09;19.50;99.90
17813;DHT22;9030;50.792;8.320;2023-08-21T06:13:35;19.60;99.90
17813;DHT22;9030;50.792;8.320;2023-08-21T06:16:04;19.70;99.90
17813;DHT22;9030;50.792;8.320;2023-08-21T06:18:30;19.70;99.90
17813;DHT22;9030;50.792;8.320;2023-08-21T06:20:57;19.90;99.90
17813;DHT22;9030;50.792;8.320;2023-08-21T06:23:24;20.00;99.90
17813;DHT22;9030;50.792;8.320;2023-08-21T06:25:50;20.00;99.90
17813;DHT22;9030;50.792;8.320;2023-08-21T06:28:17;19.90;99.90
17813;DHT22;9030;50.792;8.320;2023-08-21T06:30:44;20.00;99.90
17813;DHT22;9030;50.792;8.320;2023-08-21T06:33:12;20.30;99.90
17813;DHT22;9030;50.792;8.320;2023-08-21T06:35:38;20.60;99.90
17813;DHT22;9030;50.792;8.320;2023-08-21T06:38:05;20.70;99.90
17813;DHT22;9030;50.792;8.320;2023-08-21T06:40:32;20.80;99.90
17813;DHT22;9030;50.792;8.320;2023-08-21T06:42:58;21.20;99.90
17813;DHT22;9030;50.792;8.320;2023-08-21T06:45:25;21.50;99.90
17813;DHT22;9030;50.792;8.320;2023-08-21T06:47:55;21.70;99.90
17813;DHT22;9030;50.792;8.320;2023-08-21T06:50:23;21.90;99.90
17813;DHT22;9030;50.792;8.320;2023-08-21T06:52:50;22.20;99.90
17813;DHT22;9030;50.792;8.320;2023-08-21T06:55:16;22.30;99.90
17813;DHT22;9030;50.792;8.320;2023-08-21T06:57:43;22.40;99.90
17813;DHT22;9030;50.792;8.320;2023-08-21T07:00:10;22.70;99.90
17813;DHT22;9030;50.792;8.320;2023-08-21T07:02:37;22.90;99.90
17813;DHT22;9030;50.792;8.320;2023-08-21T07:05:04;22.90;99.90
17813;DHT22;9030;50.792;8.320;2023-08-21T07:07:33;22.90;99.90
17813;DHT22;9030;50.792;8.320;2023-08-21T07:10:00;23.10;99.90
17813;DHT22;9030;50.792;8.320;2023-08-21T07:12:27;23.10;99.90
17813;DHT22;9030;50.792;8.320;2023-08-21T07:14:53;23.20;99.90
17813;DHT22;9030;50.792;8.320;2023-08-21T07:17:20;23.50;99.90
17813;DHT22;9030;50.792;8.320;2023-08-21T07:19:47;23.80;99.90
17813;DHT22;9030;50.792;8.320;2023-08-21T07:22:14;23.90;99.90
17813;DHT22;9030;50.792;8.320;2023-08-21T07:24:42;24.10;99.90
17813;DHT22;9030;50.792;8.320;2023-08-21T07:27:09;24.30;99.90
17813;DHT22;9030;50.792;8.320;2023-08-21T07:29:35;24.50;99.90
17813;DHT22;9030;50.792;8.320;2023-08-21T07:32:02;24.70;99.90
17813;DHT22;9030;50.792;8.320;2023-08-21T07:34:28;25.10;99.90
17813;DHT22;9030;50.792;8.320;2023-08-21T07:36:55;25.20;99.90
17813;DHT22;9030;50.792;8.320;2023-08-21T07:39:22;25.30;99.90
17813;DHT22;9030;50.792;8.320;2023-08-21T07:41:50;25.40;99.90
17813;DHT22;9030;50.792;8.320;2023-08-21T07:44:18;25.40;99.90
17813;DHT22;9030;50.792;8.320;2023-08-21T07:46:45;25.60;99.90
17813;DHT22;9030;50.792;8.320;2023-08-21T07:49:11;25.40;99.90
17813;DHT22;9030;50.792;8.320;2023-08-21T07:51:38;25.60;99.90
17813;DHT22;9030;50.792;8.320;2023-08-21T07:54:05;25.90;99.90
17813;DHT22;9030;50.792;8.320;2023-08-21T07:56:31;26.20;99.90
17813;DHT22;9030;50.792;8.320;2023-08-21T07:58:59;26.70;99.90
17813;DHT22;9030;50.792;8.320;2023-08-21T08:01:27;26.80;99.90
17813;DHT22;9030;50.792;8.320;2023-08-21T08:03:53;26.90;99.90
17813;DHT22;9030;50.792;8.320;2023-08-21T08:06:20;26.60;99.90
17813;DHT22;9030;50.792;8.320;2023-08-21T08:08:46;26.80;99.90
17813;DHT22;9030;50.792;8.320;2023-08-21T08:11:13;26.80;99.90
17813;DHT22;9030;50.792;8.320;2023-08-21T08:13:40;26.80;99.90
17813;DHT22;9030;50.792;8.320;2023-08-21T08:16:08;27.10;99.90
17813;DHT22;9030;50.792;8.320;2023-08-21T08:18:34;27.30;99.90
17813;DHT22;9030;50.792;8.320;2023-08-21T08:21:01;27.40;99.90
17813;DHT22;9030;50.792;8.320;2023-08-21T08:23:27;27.60;99.90
17813;DHT22;9030;50.792;8.320;2023-08-21T08:25:54;27.60;99.90
17813;DHT22;9030;50.792;8.320;2023-08-21T08:28:21;27.70;99.90
17813;DHT22;9030;50.792;8.320;2023-08-21T08:30:47;27.60;99.90
17813;DHT22;9030;50.792;8.320;2023-08-21T08:33:15;27.60;99.90
17813;DHT22;9030;50.792;8.320;2023-08-21T08:35:42;27.80;99.90
17813;DHT22;9030;50.792;8.320;2023-08-21T08:38:09;28.00;99.90
17813;DHT22;9030;50.792;8.320;2023-08-21T08:40:40;28.10;99.90
17813;DHT22;9030;50.792;8.320;2023-08-21T08:43:09;28.00;99.90
17813;DHT22;9030;50.792;8.320;2023-08-21T08:45:36;27.90;99.90
17813;DHT22;9030;50.792;8.320;2023-08-21T08:48:04;27.80;99.90
17813;DHT22;9030;50.792;8.320;2023-08-21T08:50:34;27.90;99.90
17813;DHT22;9030;50.792;8.320;2023-08-21T08:53:01;28.20;99.90
17813;DHT22;9030;50.792;8.320;2023-08-21T08:55:28;28.50;99.90
17813;DHT22;9030;50.792;8.320;2023-08-21T08:57:55;28.60;99.90
17813;DHT22;9030;50.792;8.320;2023-08-21T09:00:22;28.70;99.90
17813;DHT22;9030;50.792;8.320;2023-08-21T09:02:49;29.00;99.90
17813;DHT22;9030;50.792;8.320;2023-08-21T09:05:16;29.10;99.90
17813;DHT22;9030;50.792;8.320;2023-08-21T09:07:44;29.40;99.90
17813;DHT22;9030;50.792;8.320;2023-08-21T09:10:14;29.40;99.90
17813;DHT22;9030;50.792;8.320;2023-08-21T09:12:45;29.40;99.90
17813;DHT22;9030;50.792;8.320;2023-08-21T09:15:11;29.90;99.90
17813;DHT22;9030;50.792;8.320;2023-08-21T09:17:38;29.90;99.90
17813;DHT22;9030;50.792;8.320;2023-08-21T09:20:05;30.00;99.90
17813;DHT22;9030;50.792;8.320;2023-08-21T09:22:33;29.90;99.90
17813;DHT22;9030;50.792;8.320;2023-08-21T09:25:02;30.20;99.90
17813;DHT22;9030;50.792;8.320;2023-08-21T09:27:32;30.10;99.90
17813;DHT22;9030;50.792;8.320;2023-08-21T09:29:59;30.00;99.90
17813;DHT22;9030;50.792;8.320;2023-08-21T09:32:25;30.00;99.90
17813;DHT22;9030;50.792;8.320;2023-08-21T09:34:52;30.10;99.90
17813;DHT22;9030;50.792;8.320;2023-08-21T09:37:19;30.10;99.90
17813;DHT22;9030;50.792;8.320;2023-08-21T09:39:45;30.20;99.90
17813;DHT22;9030;50.792;8.320;2023-08-21T09:42:14;30.30;99.90
17813;DHT22;9030;50.792;8.320;2023-08-21T09:44:42;30.10;99.90
17813;DHT22;9030;50.792;8.320;2023-08-21T09:47:08;30.30;99.90
17813;DHT22;9030;50.792;8.320;2023-08-21T09:49:36;30.60;99.90
17813;DHT22;9030;50.792;8.320;2023-08-21T09:52:04;31.00;99.90
17813;DHT22;9030;50.792;8.320;2023-08-21T09:54:32;30.80;99.90
17813;DHT22;9030;50.792;8.320;2023-08-21T09:57:01;30.40;99.90
17813;DHT22;9030;50.792;8.320;2023-08-21T09:59:31;30.90;99.90
17813;DHT22;9030;50.792;8.320;2023-08-21T10:01:59;31.00;99.90
17813;DHT22;9030;50.792;8.320;2023-08-21T10:04:28;31.10;99.90
17813;DHT22;9030;50.792;8.320;2023-08-21T10:06:56;31.40;99.90
17813;DHT22;9030;50.792;8.320;2023-08-21T10:09:23;31.10;99.90
17813;DHT22;9030;50.792;8.320;2023-08-21T10:11:52;30.80;99.90
17813;DHT22;9030;50.792;8.320;2023-08-21T10:14:19;30.50;99.90
17813;DHT22;9030;50.792;8.320;2023-08-21T10:16:48;31.10;99.90
17813;DHT22;9030;50.792;8.320;2023-08-21T10:19:15;31.20;99.90
17813;DHT22;9030;50.792;8.320;2023-08-21T10:21:46;31.50;99.90
17813;DHT22;9030;50.792;8.320;2023-08-21T10:24:26;31.80;99.90
17813;DHT22;9030;50.792;8.320;2023-08-21T10:26:52;31.90;99.90
17813;DHT22;9030;50.792;8.320;2023-08-21T10:29:19;31.90;99.90
17813;DHT22;9030;50.792;8.320;2023-08-21T10:31:58;31.60;99.90
17813;DHT22;9030;50.792;8.320;2023-08-21T10:34:31;32.00;99.90
17813;DHT22;9030;50.792;8.320;2023-08-21T10:37:08;31.70;99.90
17813;DHT22;9030;50.792;8.320;2023-08-21T10:39:38;30.70;99.90
17813;DHT22;9030;50.792;8.320;2023-08-21T10:42:07;30.00;99.90
17813;DHT22;9030;50.792;8.320;2023-08-21T10:44:37;29.80;99.90
17813;DHT22;9030;50.792;8.320;2023-08-21T10:47:18;29.60;99.90
17813;DHT22;9030;50.792;8.320;2023-08-21T10:49:46;29.90;99.90
17813;DHT22;9030;50.792;8.320;2023-08-21T10:52:13;30.80;99.90
17813;DHT22;9030;50.792;8.320;2023-08-21T10:54:48;31.80;99.90
17813;DHT22;9030;50.792;8.320;2023-08-21T10:57:15;31.90;99.90
17813;DHT22;9030;50.792;8.320;2023-08-21T10:59:55;31.50;99.90
17813;DHT22;9030;50.792;8.320;2023-08-21T11:02:25;31.90;99.90
17813;DHT22;9030;50.792;8.320;2023-08-21T11:04:52;31.70;99.90
17813;DHT22;9030;50.792;8.320;2023-08-21T11:07:19;31.80;99.90
17813;DHT22;9030;50.792;8.320;2023-08-21T11:09:46;32.10;99.90
17813;DHT22;9030;50.792;8.320;2023-08-21T11:12:15;32.00;99.90
17813;DHT22;9030;50.792;8.320;2023-08-21T11:14:42;30.30;99.90
17813;DHT22;9030;50.792;8.320;2023-08-21T11:17:10;29.20;99.90
17813;DHT22;9030;50.792;8.320;2023-08-21T11:19:39;28.60;99.90
17813;DHT22;9030;50.792;8.320;2023-08-21T11:22:06;28.40;99.90
17813;DHT22;9030;50.792;8.320;2023-08-21T11:24:41;28.40;99.90
17813;DHT22;9030;50.792;8.320;2023-08-21T11:27:08;29.00;99.90
17813;DHT22;9030;50.792;8.320;2023-08-21T11:29:39;29.60;99.90
17813;DHT22;9030;50.792;8.320;2023-08-21T11:32:10;30.30;99.90
17813;DHT22;9030;50.792;8.320;2023-08-21T11:34:40;31.20;99.90
17813;DHT22;9030;50.792;8.320;2023-08-21T11:37:06;30.60;99.90
17813;DHT22;9030;50.792;8.320;2023-08-21T11:39:43;29.70;99.90
17813;DHT22;9030;50.792;8.320;2023-08-21T11:42:11;29.00;99.90
17813;DHT22;9030;50.792;8.320;2023-08-21T11:44:43;29.10;99.90
17813;DHT22;9030;50.792;8.320;2023-08-21T11:47:10;29.30;99.90
17813;DHT22;9030;50.792;8.320;2023-08-21T11:49:39;29.60;99.90
17813;DHT22;9030;50.792;8.320;2023-08-21T11:52:06;29.80;99.90
17813;DHT22;9030;50.792;8.320;2023-08-21T11:54:34;29.40;99.90
17813;DHT22;9030;50.792;8.320;2023-08-21T11:57:04;29.10;99.90
17813;DHT22;9030;50.792;8.320;2023-08-21T11:59:31;29.20;99.90
17813;DHT22;9030;50.792;8.320;2023-08-21T12:01:58;29.50;99.90
17813;DHT22;9030;50.792;8.320;2023-08-21T12:04:25;30.40;99.90
17813;DHT22;9030;50.792;8.320;2023-08-21T12:06:53;30.70;99.90
17813;DHT22;9030;50.792;8.320;2023-08-21T12:09:20;30.60;99.90
17813;DHT22;9030;50.792;8.320;2023-08-21T12:11:47;30.10;99.90
17813;DHT22;9030;50.792;8.320;2023-08-21T12:14:14;29.70;99.90
17813;DHT22;9030;50.792;8.320;2023-08-21T12:16:42;29.40;99.90
17813;DHT22;9030;50.792;8.320;2023-08-21T12:19:09;28.90;99.90
17813;DHT22;9030;50.792;8.320;2023-08-21T12:21:37;28.90;99.90
17813;DHT22;9030;50.792;8.320;2023-08-21T12:24:05;29.50;99.90
17813;DHT22;9030;50.792;8.320;2023-08-21T12:26:32;29.70;99.90
17813;DHT22;9030;50.792;8.320;2023-08-21T12:29:00;29.10;99.90
17813;DHT22;9030;50.792;8.320;2023-08-21T12:31:27;29.10;99.90
17813;DHT22;9030;50.792;8.320;2023-08-21T12:33:54;30.10;99.90
17813;DHT22;9030;50.792;8.320;2023-08-21T12:36:20;30.50;99.90
17813;DHT22;9030;50.792;8.320;2023-08-21T12:38:47;30.60;99.90
17813;DHT22;9030;50.792;8.320;2023-08-21T12:41:15;30.80;99.90
17813;DHT22;9030;50.792;8.320;2023-08-21T12:43:42;30.30;99.90
17813;DHT22;9030;50.792;8.320;2023-08-21T12:46:08;30.20;99.90
17813;DHT22;9030;50.792;8.320;2023-08-21T12:48:35;30.20;99.90
17813;DHT22;9030;50.792;8.320;2023-08-21T12:51:02;30.70;99.90
17813;DHT22;9030;50.792;8.320;2023-08-21T12:53:28;30.50;99.90
17813;DHT22;9030;50.792;8.320;2023-08-21T12:55:55;30.20;99.90
17813;DHT22;9030;50.792;8.320;2023-08-21T12:58:23;29.80;99.90
17813;DHT22;9030;50.792;8.320;2023-08-21T13:00:50;29.80;99.90
17813;DHT22;9030;50.792;8.320;2023-08-21T13:03:16;29.50;99.90
17813;DHT22;9030;50.792;8.320;2023-08-21T13:05:43;29.30;99.90
17813;DHT22;9030;50.792;8.320;2023-08-21T13:08:10;29.50;99.90
17813;DHT22;9030;50.792;8.320;2023-08-21T13:10:36;29.40;99.90
17813;DHT22;9030;50.792;8.320;2023-08-21T13:13:03;30.20;99.90
17813;DHT22;9030;50.792;8.320;2023-08-21T13:15:31;30.70;99.90
17813;DHT22;9030;50.792;8.320;2023-08-21T13:17:58;30.80;99.90
17813;DHT22;9030;50.792;8.320;2023-08-21T13:20:24;30.60;99.90
17813;DHT22;9030;50.792;8.320;2023-08-21T13:22:51;29.80;99.90
17813;DHT22;9030;50.792;8.320;2023-08-21T13:25:21;29.00;99.90
17813;DHT22;9030;50.792;8.320;2023-08-21T13:27:49;28.80;99.90
17813;DHT22;9030;50.792;8.320;2023-08-21T13:30:16;29.10;99.90
17813;DHT22;9030;50.792;8.320;2023-08-21T13:32:44;29.40;99.90
17813;DHT22;9030;50.792;8.320;2023-08-21T13:35:11;29.80;99.90
17813;DHT22;9030;50.792;8.320;2023-08-21T13:37:39;29.80;99.90
17813;DHT22;9030;50.792;8.320;2023-08-21T13:40:06;29.50;99.90
17813;DHT22;9030;50.792;8.320;2023-08-21T13:42:37;29.40;99.90
17813;DHT22;9030;50.792;8.320;2023-08-21T13:45:07;29.40;99.90
17813;DHT22;9030;50.792;8.320;2023-08-21T13:47:35;29.60;99.90
17813;DHT22;9030;50.792;8.320;2023-08-21T13:50:04;29.40;99.90
17813;DHT22;9030;50.792;8.320;2023-08-21T13:52:31;29.40;99.90
17813;DHT22;9030;50.792;8.320;2023-08-21T13:54:59;29.30;99.90
17813;DHT22;9030;50.792;8.320;2023-08-21T13:57:26;29.40;99.90
17813;DHT22;9030;50.792;8.320;2023-08-21T13:59:53;29.00;99.90
17813;DHT22;9030;50.792;8.320;2023-08-21T14:02:19;29.40;99.90
17813;DHT22;9030;50.792;8.320;2023-08-21T14:04:47;29.70;99.90
17813;DHT22;9030;50.792;8.320;2023-08-21T14:07:15;30.20;99.90
17813;DHT22;9030;50.792;8.320;2023-08-21T14:09:42;30.30;99.90
17813;DHT22;9030;50.792;8.320;2023-08-21T14:12:09;30.10;99.90
17813;DHT22;9030;50.792;8.320;2023-08-21T14:14:35;29.90;99.90
17813;DHT22;9030;50.792;8.320;2023-08-21T14:17:03;29.70;99.90
17813;DHT22;9030;50.792;8.320;2023-08-21T14:19:30;29.10;99.90
17813;DHT22;9030;50.792;8.320;2023-08-21T14:21:57;29.10;99.90
17813;DHT22;9030;50.792;8.320;2023-08-21T14:24:26;29.40;99.90
17813;DHT22;9030;50.792;8.320;2023-08-21T14:26:52;29.50;99.90
17813;DHT22;9030;50.792;8.320;2023-08-21T14:29:19;29.80;99.90
17813;DHT22;9030;50.792;8.320;2023-08-21T14:31:46;30.10;99.90
17813;DHT22;9030;50.792;8.320;2023-08-21T14:34:14;30.10;99.90
17813;DHT22;9030;50.792;8.320;2023-08-21T14:36:40;29.70;99.90
17813;DHT22;9030;50.792;8.320;2023-08-21T14:39:07;29.60;99.90
17813;DHT22;9030;50.792;8.320;2023-08-21T14:41:37;29.30;99.90
17813;DHT22;9030;50.792;8.320;2023-08-21T14:44:04;29.30;99.90
17813;DHT22;9030;50.792;8.320;2023-08-21T14:46:31;29.20;99.90
17813;DHT22;9030;50.792;8.320;2023-08-21T14:48:57;28.90;99.90
17813;DHT22;9030;50.792;8.320;2023-08-21T14:51:24;28.90;99.90
17813;DHT22;9030;50.792;8.320;2023-08-21T14:53:51;29.20;99.90
17813;DHT22;9030;50.792;8.320;2023-08-21T14:56:17;29.00;99.90
17813;DHT22;9030;50.792;8.320;2023-08-21T14:58:45;29.10;99.90
17813;DHT22;9030;50.792;8.320;2023-08-21T15:01:12;28.80;99.90
17813;DHT22;9030;50.792;8.320;2023-08-21T15:03:39;29.00;99.90
17813;DHT22;9030;50.792;8.320;2023-08-21T15:06:05;28.70;99.90
17813;DHT22;9030;50.792;8.320;2023-08-21T15:08:32;28.20;99.90
17813;DHT22;9030;50.792;8.320;2023-08-21T15:10:59;27.90;99.90
17813;DHT22;9030;50.792;8.320;2023-08-21T15:13:25;28.30;99.90
17813;DHT22;9030;50.792;8.320;2023-08-21T15:15:53;28.50;99.90
17813;DHT22;9030;50.792;8.320;2023-08-21T15:18:20;28.50;99.90
17813;DHT22;9030;50.792;8.320;2023-08-21T15:20:47;28.60;99.90
17813;DHT22;9030;50.792;8.320;2023-08-21T15:23:14;28.80;99.90
17813;DHT22;9030;50.792;8.320;2023-08-21T15:25:40;29.40;99.90
17813;DHT22;9030;50.792;8.320;2023-08-21T15:28:07;30.00;99.90
17813;DHT22;9030;50.792;8.320;2023-08-21T15:30:34;29.90;99.90
17813;DHT22;9030;50.792;8.320;2023-08-21T15:33:02;29.70;99.90
17813;DHT22;9030;50.792;8.320;2023-08-21T15:35:29;29.80;99.90
17813;DHT22;9030;50.792;8.320;2023-08-21T15:37:56;30.10;99.90
17813;DHT22;9030;50.792;8.320;2023-08-21T15:40:22;30.10;99.90
17813;DHT22;9030;50.792;8.320;2023-08-21T15:42:49;29.50;99.90
17813;DHT22;9030;50.792;8.320;2023-08-21T15:45:16;28.80;99.90